Time;durP1;ratioP1;P1;durP2;ratioP2;P2;SDS_P1;SDS_P2;PMS_P1;PMS_P2;Temp;Humidity;BMP_temperature;BMP_pressure;BME280_temperature;BME280_humidity;BME280_pressure;Samples;Min_cycle;Max_cycle;Signal;HPM_P1;HPM_P2
2021/03/17 00:00:51;;;;;;;10.30;5.00;;;7.20;58.20;;;;;;5053769;28;20545;-79
2021/03/17 00:03:17;;;;;;;7.57;4.65;;;7.10;58.40;;;;;;5052374;28;20064;-79
2021/03/17 00:05:44;;;;;;;11.20;5.28;;;7.10;58.60;;;;;;5053527;28;20053;-78
2021/03/17 00:08:09;;;;;;;16.00;5.50;;;7.10;58.90;;;;;;5053354;28;20023;-78
2021/03/17 00:10:42;;;;;;;15.20;7.05;;;7.10;59.10;;;;;;5056018;28;20104;-77
2021/03/17 00:13:08;;;;;;;12.48;6.13;;;7.00;59.20;;;;;;5059047;28;20059;-75
2021/03/17 00:15:37;;;;;;;11.57;5.88;;;7.10;59.40;;;;;;5058910;28;20025;-77
2021/03/17 00:18:04;;;;;;;17.38;6.95;;;7.10;59.50;;;;;;5056549;28;20029;-76
2021/03/17 00:20:30;;;;;;;16.50;6.57;;;7.10;59.50;;;;;;5054332;28;20470;-77
2021/03/17 00:22:56;;;;;;;14.43;6.18;;;7.10;59.40;;;;;;5053764;28;20098;-78
2021/03/17 00:25:24;;;;;;;12.27;6.88;;;7.10;59.30;;;;;;5053807;28;20538;-75
2021/03/17 00:27:50;;;;;;;18.85;6.88;;;7.10;59.40;;;;;;5057087;28;20028;-80
2021/03/17 00:30:16;;;;;;;17.30;7.32;;;7.00;59.40;;;;;;5057663;28;20483;-77
2021/03/17 00:32:42;;;;;;;12.07;6.68;;;7.00;59.50;;;;;;5057613;28;20025;-79
2021/03/17 00:35:08;;;;;;;13.38;6.20;;;7.00;59.60;;;;;;5057396;28;20032;-80
2021/03/17 00:37:34;;;;;;;13.95;6.40;;;6.90;59.60;;;;;;5057125;28;20024;-79
2021/03/17 00:40:00;;;;;;;10.68;6.10;;;6.90;59.70;;;;;;5055883;28;20116;-76
2021/03/17 00:42:26;;;;;;;8.32;4.90;;;6.90;59.80;;;;;;5057036;28;20100;-75
2021/03/17 00:44:51;;;;;;;10.90;5.95;;;6.90;59.70;;;;;;5056771;28;20389;-77
2021/03/17 00:47:17;;;;;;;14.77;6.30;;;6.90;59.80;;;;;;5056900;28;20029;-81
2021/03/17 00:49:43;;;;;;;15.48;6.75;;;6.80;59.90;;;;;;5057091;28;20056;-76
2021/03/17 00:52:08;;;;;;;11.30;6.78;;;6.80;60.10;;;;;;5055811;28;20034;-78
2021/03/17 00:54:34;;;;;;;11.63;6.57;;;6.70;60.20;;;;;;5056580;28;20017;-76
2021/03/17 00:57:00;;;;;;;10.45;6.63;;;6.70;60.30;;;;;;5056591;28;20021;-77
2021/03/17 00:59:26;;;;;;;12.23;6.50;;;6.70;60.60;;;;;;5056414;28;20060;-79
2021/03/17 01:01:51;;;;;;;10.30;6.90;;;6.70;60.80;;;;;;5056168;28;20029;-76
2021/03/17 01:04:17;;;;;;;15.98;7.25;;;6.60;60.80;;;;;;5054906;28;20048;-75
2021/03/17 01:06:43;;;;;;;8.80;5.20;;;6.60;60.80;;;;;;5056033;28;20028;-76
2021/03/17 01:09:09;;;;;;;12.48;6.35;;;6.60;60.70;;;;;;5056248;28;20045;-79
2021/03/17 01:11:34;;;;;;;11.25;5.47;;;6.70;60.70;;;;;;5056228;28;20052;-76
2021/03/17 01:14:00;;;;;;;13.48;6.03;;;6.60;60.60;;;;;;5056247;28;20415;-77
2021/03/17 01:16:26;;;;;;;9.88;5.30;;;6.60;60.70;;;;;;5054593;28;20490;-76
2021/03/17 01:18:52;;;;;;;11.00;5.55;;;6.60;60.60;;;;;;5056225;28;20024;-76
2021/03/17 01:21:17;;;;;;;12.20;5.75;;;6.60;60.60;;;;;;5056164;28;20025;-78
2021/03/17 01:23:43;;;;;;;10.52;5.47;;;6.50;60.60;;;;;;5056321;28;20025;-76
2021/03/17 01:26:09;;;;;;;9.18;5.38;;;6.50;60.60;;;;;;5055882;28;20032;-76
2021/03/17 01:28:34;;;;;;;6.82;5.28;;;6.50;60.70;;;;;;5055631;28;20029;-76
2021/03/17 01:31:00;;;;;;;10.82;5.15;;;6.40;60.70;;;;;;5055620;28;20025;-75
2021/03/17 01:33:28;;;;;;;7.75;5.10;;;6.40;60.70;;;;;;5055725;28;20120;-76
2021/03/17 01:35:54;;;;;;;8.00;4.43;;;6.40;60.60;;;;;;5055590;28;20014;-77
2021/03/17 01:38:20;;;;;;;7.50;4.63;;;6.40;60.50;;;;;;5054998;28;20056;-75
2021/03/17 01:40:47;;;;;;;10.05;5.40;;;6.30;60.40;;;;;;5055668;28;20363;-77
2021/03/17 01:43:13;;;;;;;6.38;4.35;;;6.30;60.60;;;;;;5055479;28;20505;-75
2021/03/17 01:45:40;;;;;;;15.48;5.55;;;6.30;60.60;;;;;;5055580;28;20025;-77
2021/03/17 01:48:07;;;;;;;7.28;4.40;;;6.20;60.60;;;;;;5054081;28;20529;-78
2021/03/17 01:50:39;;;;;;;8.93;5.43;;;6.20;60.60;;;;;;5054928;28;20051;-77
2021/03/17 01:53:16;;;;;;;7.70;4.95;;;6.20;61.00;;;;;;5064901;28;20020;-75
2021/03/17 01:55:43;;;;;;;9.23;5.45;;;6.20;61.30;;;;;;5075158;28;20021;-76
2021/03/17 01:58:10;;;;;;;8.90;5.40;;;6.20;61.50;;;;;;5073968;28;20028;-74
2021/03/17 02:00:38;;;;;;;13.95;5.80;;;6.20;61.70;;;;;;5075298;28;20024;-77
2021/03/17 02:03:04;;;;;;;10.05;6.05;;;6.30;62.10;;;;;;5075071;28;20032;-76
2021/03/17 02:05:32;;;;;;;10.10;6.28;;;6.30;62.20;;;;;;5073774;28;20035;-76
2021/03/17 02:08:09;;;;;;;9.65;5.88;;;6.40;62.40;;;;;;5073905;28;20512;-75
2021/03/17 02:10:35;;;;;;;10.32;5.90;;;6.40;62.50;;;;;;5074814;28;20020;-74
2021/03/17 02:13:35;;;;;;;14.15;6.45;;;6.50;62.60;;;;;;5074999;28;20028;-77
2021/03/17 02:16:06;;;;;;;11.57;7.00;;;6.50;62.60;;;;;;5073571;28;20382;-75
2021/03/17 02:18:54;;;;;;;9.75;6.85;;;6.60;62.60;;;;;;5074801;28;20054;-76
2021/03/17 02:22:00;;;;;;;9.50;6.35;;;6.70;62.50;;;;;;5074729;28;20070;-76
2021/03/17 02:24:50;;;;;;;10.52;6.43;;;6.70;62.20;;;;;;5074487;28;20017;-75
2021/03/17 02:27:41;;;;;;;10.77;6.47;;;6.80;62.10;;;;;;5074580;28;20414;-77
2021/03/17 02:30:40;;;;;;;10.07;6.13;;;6.80;62.10;;;;;;5074404;28;20028;-76
2021/03/17 02:33:39;;;;;;;7.93;5.57;;;6.90;62.10;;;;;;5074317;28;20059;-75
2021/03/17 02:36:11;;;;;;;8.00;5.53;;;6.90;62.70;;;;;;5073072;28;20031;-75
2021/03/17 02:38:39;;;;;;;11.23;5.95;;;6.90;61.70;;;;;;5074296;28;20095;-74
2021/03/17 02:41:06;;;;;;;8.35;5.40;;;7.00;61.70;;;;;;5074315;28;20150;-74
2021/03/17 02:43:37;;;;;;;9.00;5.38;;;7.00;61.60;;;;;;5074212;28;20102;-75
2021/03/17 02:46:10;;;;;;;10.95;5.85;;;7.00;61.50;;;;;;5074162;28;20021;-76
2021/03/17 02:48:43;;;;;;;11.57;5.80;;;7.10;61.60;;;;;;5072763;28;20029;-75
2021/03/17 02:51:16;;;;;;;6.43;4.82;;;7.10;61.60;;;;;;5066658;28;20021;-75
2021/03/17 02:53:43;;;;;;;8.52;5.03;;;7.10;61.50;;;;;;5054077;28;20036;-75
2021/03/17 02:56:12;;;;;;;9.45;4.47;;;7.10;61.40;;;;;;5052667;28;20414;-74
2021/03/17 02:58:42;;;;;;;5.43;3.53;;;7.20;61.40;;;;;;5053870;28;20096;-75
2021/03/17 03:01:11;;;;;;;10.38;5.03;;;7.20;61.30;;;;;;5053882;28;20500;-73
2021/03/17 03:03:39;;;;;;;5.97;4.18;;;7.20;61.20;;;;;;5053938;28;20025;-75
2021/03/17 03:06:06;;;;;;;7.57;4.65;;;7.30;61.20;;;;;;5053672;28;20029;-75
2021/03/17 03:08:36;;;;;;;7.72;5.22;;;7.30;61.10;;;;;;5053691;28;20039;-74
2021/03/17 03:11:04;;;;;;;10.60;4.82;;;7.30;60.90;;;;;;5053662;28;20108;-75
2021/03/17 03:13:31;;;;;;;8.07;5.25;;;7.30;60.90;;;;;;5053571;28;20109;-75
2021/03/17 03:15:57;;;;;;;7.55;4.43;;;7.30;60.80;;;;;;5053699;28;20032;-73
2021/03/17 03:18:24;;;;;;;7.07;4.60;;;7.30;60.80;;;;;;5052182;28;20021;-74
2021/03/17 03:20:54;;;;;;;8.02;5.18;;;7.30;60.90;;;;;;5053489;28;20032;-74
2021/03/17 03:23:24;;;;;;;8.25;5.55;;;7.30;60.90;;;;;;5053483;28;20025;-73
2021/03/17 03:25:51;;;;;;;14.27;4.88;;;7.20;60.90;;;;;;5053392;28;20032;-74
2021/03/17 03:28:20;;;;;;;8.32;4.88;;;7.20;60.90;;;;;;5053269;28;20025;-75
2021/03/17 03:30:49;;;;;;;9.55;4.78;;;7.20;60.90;;;;;;5053336;28;20032;-74
2021/03/17 03:33:16;;;;;;;6.65;3.88;;;7.20;60.80;;;;;;5051953;28;20067;-75
2021/03/17 03:35:42;;;;;;;6.55;4.32;;;7.20;60.80;;;;;;5051754;28;20029;-74
2021/03/17 03:38:10;;;;;;;8.40;4.22;;;7.20;60.70;;;;;;5053186;28;20029;-75
2021/03/17 03:40:38;;;;;;;6.05;4.28;;;7.20;60.70;;;;;;5053172;28;20017;-75
2021/03/17 03:43:05;;;;;;;7.43;4.50;;;7.20;60.60;;;;;;5053064;28;20028;-76
2021/03/17 03:45:31;;;;;;;10.48;5.63;;;7.10;60.60;;;;;;5053162;28;20025;-74
2021/03/17 03:47:57;;;;;;;6.55;4.22;;;7.10;60.60;;;;;;5053014;28;20047;-74
2021/03/17 03:50:24;;;;;;;8.40;4.85;;;7.10;60.70;;;;;;5052659;28;20088;-75
2021/03/17 03:53:25;;;;;;;8.60;5.13;;;7.10;60.80;;;;;;5053061;28;20075;-75
2021/03/17 03:56:16;;;;;;;8.95;5.30;;;7.10;61.00;;;;;;5051659;28;20021;-75
2021/03/17 03:58:47;;;;;;;7.85;5.20;;;7.00;60.90;;;;;;5053089;28;20490;-74
2021/03/17 04:01:31;;;;;;;12.25;5.90;;;7.00;61.10;;;;;;5052643;28;20382;-73
2021/03/17 04:04:03;;;;;;;9.70;5.20;;;7.00;61.20;;;;;;5051623;28;20036;-74
2021/03/17 04:06:31;;;;;;;9.82;5.38;;;7.00;61.20;;;;;;5052863;28;20495;-74
2021/03/17 04:09:00;;;;;;;13.32;5.47;;;7.00;61.30;;;;;;5052730;28;20057;-74
2021/03/17 04:11:27;;;;;;;6.88;4.53;;;7.00;61.30;;;;;;5051488;28;20031;-74
2021/03/17 04:13:55;;;;;;;7.43;4.90;;;7.00;61.30;;;;;;5052741;28;20017;-74
2021/03/17 04:16:23;;;;;;;11.02;5.45;;;7.00;61.30;;;;;;5051508;28;20021;-75
2021/03/17 04:18:51;;;;;;;7.47;4.90;;;7.00;61.40;;;;;;5052834;28;20024;-74
2021/03/17 04:21:19;;;;;;;7.05;4.75;;;7.10;61.50;;;;;;5052679;28;20075;-75
2021/03/17 04:23:47;;;;;;;6.53;3.95;;;7.10;61.50;;;;;;5052594;28;20056;-73
2021/03/17 04:26:15;;;;;;;7.53;4.50;;;7.10;61.50;;;;;;5051309;28;20112;-73
2021/03/17 04:28:42;;;;;;;7.13;4.47;;;7.10;61.70;;;;;;5052723;28;20025;-74
2021/03/17 04:31:09;;;;;;;11.02;5.00;;;7.20;61.70;;;;;;5052466;28;20055;-73
2021/03/17 04:33:37;;;;;;;7.70;4.65;;;7.20;61.60;;;;;;5052715;28;20067;-73
2021/03/17 04:36:04;;;;;;;9.07;5.75;;;7.20;61.60;;;;;;5051102;28;20017;-73
2021/03/17 04:38:31;;;;;;;7.72;5.20;;;7.30;61.70;;;;;;5051305;28;20029;-74
2021/03/17 04:40:58;;;;;;;10.48;6.38;;;7.30;61.60;;;;;;5051206;28;20036;-73
2021/03/17 04:43:25;;;;;;;10.73;5.85;;;7.30;61.50;;;;;;5052496;28;20036;-73
2021/03/17 04:45:51;;;;;;;11.98;6.65;;;7.30;61.60;;;;;;5052382;28;20162;-74
2021/03/17 04:48:18;;;;;;;9.98;5.68;;;7.30;61.40;;;;;;5052319;28;20021;-74
2021/03/17 04:50:46;;;;;;;9.00;6.35;;;7.30;61.10;;;;;;5052159;28;20578;-75
2021/03/17 04:53:13;;;;;;;10.93;6.55;;;7.40;61.10;;;;;;5052371;28;20029;-73
2021/03/17 04:55:39;;;;;;;13.93;6.75;;;7.30;61.00;;;;;;5052423;28;20056;-74
2021/03/17 04:58:11;;;;;;;8.90;6.75;;;7.30;60.90;;;;;;5052276;28;20057;-73
2021/03/17 05:00:39;;;;;;;9.50;6.25;;;7.40;60.90;;;;;;5052440;28;20386;-74
2021/03/17 05:03:08;;;;;;;10.38;6.72;;;7.40;61.00;;;;;;5052247;28;20044;-74
2021/03/17 05:05:35;;;;;;;10.75;6.78;;;7.40;60.80;;;;;;5052214;28;20489;-75
2021/03/17 05:08:04;;;;;;;12.77;7.40;;;7.40;60.90;;;;;;5052310;28;20108;-72
2021/03/17 05:10:30;;;;;;;10.95;7.30;;;7.30;60.90;;;;;;5052059;28;20047;-73
2021/03/17 05:12:56;;;;;;;11.65;7.88;;;7.30;60.90;;;;;;5052137;28;20467;-74
2021/03/17 05:15:24;;;;;;;13.02;8.55;;;7.30;60.90;;;;;;5055690;28;20024;-73
2021/03/17 05:17:51;;;;;;;13.73;8.73;;;7.30;60.90;;;;;;5054391;28;20074;-73
2021/03/17 05:20:25;;;;;;;12.95;8.10;;;7.30;61.00;;;;;;5055649;28;20017;-73
2021/03/17 05:22:52;;;;;;;13.87;8.57;;;7.30;61.10;;;;;;5055714;28;20025;-73
2021/03/17 05:25:21;;;;;;;15.55;10.45;;;7.20;61.00;;;;;;5054295;28;20279;-73
2021/03/17 05:27:52;;;;;;;13.70;9.77;;;7.20;61.20;;;;;;5055509;28;20387;-73
2021/03/17 05:30:18;;;;;;;14.65;9.23;;;7.20;61.30;;;;;;5055325;28;20029;-73
2021/03/17 05:32:47;;;;;;;14.20;9.50;;;7.20;61.30;;;;;;5055608;28;20483;-74
2021/03/17 05:35:14;;;;;;;15.13;10.15;;;7.20;61.30;;;;;;5055440;28;20028;-73
2021/03/17 05:37:40;;;;;;;16.38;9.57;;;7.20;61.20;;;;;;5055276;28;20355;-74
2021/03/17 05:40:09;;;;;;;13.15;9.25;;;7.20;61.30;;;;;;5055230;28;20029;-74
2021/03/17 05:42:38;;;;;;;13.30;9.30;;;7.20;61.20;;;;;;5055275;28;20029;-73
2021/03/17 05:45:04;;;;;;;13.98;9.02;;;7.20;61.20;;;;;;5055123;28;20513;-73
2021/03/17 05:47:30;;;;;;;14.65;8.23;;;7.20;61.20;;;;;;5055153;28;20029;-73
2021/03/17 05:49:56;;;;;;;10.25;6.97;;;7.20;61.10;;;;;;5054803;28;20037;-72
2021/03/17 05:52:23;;;;;;;10.75;7.63;;;7.20;61.10;;;;;;5055033;28;20032;-72
2021/03/17 05:54:49;;;;;;;11.48;8.13;;;7.20;61.10;;;;;;5053703;28;20025;-73
2021/03/17 05:57:14;;;;;;;13.98;9.20;;;7.20;61.00;;;;;;5054744;28;20071;-74
2021/03/17 05:59:40;;;;;;;12.48;8.90;;;7.20;61.10;;;;;;5054634;28;20029;-73
2021/03/17 06:02:08;;;;;;;11.45;8.05;;;7.20;61.10;;;;;;5054872;28;20029;-73
2021/03/17 06:04:37;;;;;;;10.48;6.80;;;7.30;61.20;;;;;;5054784;28;20067;-73
2021/03/17 06:07:09;;;;;;;12.25;7.90;;;7.30;61.40;;;;;;5054708;28;20047;-73
2021/03/17 06:09:36;;;;;;;12.15;7.65;;;7.40;61.30;;;;;;5053428;28;20053;-72
2021/03/17 06:12:03;;;;;;;13.90;8.73;;;7.40;61.30;;;;;;5054661;28;20025;-74
2021/03/17 06:14:34;;;;;;;10.02;6.97;;;7.40;61.20;;;;;;5054577;28;20021;-73
2021/03/17 06:17:03;;;;;;;13.20;8.07;;;7.60;61.40;;;;;;5054697;28;20017;-72
2021/03/17 06:19:32;;;;;;;14.27;7.50;;;7.60;61.20;;;;;;5054516;28;20413;-73
2021/03/17 06:21:59;;;;;;;10.50;7.32;;;7.70;61.10;;;;;;5054514;28;20381;-73
2021/03/17 06:24:27;;;;;;;13.75;7.63;;;7.80;60.90;;;;;;5054399;28;20048;-73
2021/03/17 06:26:53;;;;;;;15.02;7.55;;;7.90;60.80;;;;;;5054368;28;20104;-73
2021/03/17 06:29:19;;;;;;;9.57;7.25;;;8.00;60.70;;;;;;5054468;28;20497;-73
2021/03/17 06:31:47;;;;;;;12.40;7.53;;;8.00;60.50;;;;;;5054458;28;20490;-73
2021/03/17 06:34:13;;;;;;;11.02;6.75;;;8.10;60.20;;;;;;5053018;28;20025;-72
2021/03/17 06:36:53;;;;;;;11.50;6.25;;;8.20;59.90;;;;;;5054225;28;20025;-72
2021/03/17 06:39:20;;;;;;;16.50;6.47;;;8.20;59.40;;;;;;5054003;28;20486;-73
2021/03/17 06:41:54;;;;;;;9.13;5.65;;;8.30;59.40;;;;;;5052486;28;20082;-73
2021/03/17 06:44:30;;;;;;;11.52;6.18;;;8.30;59.20;;;;;;5053976;28;20021;-72
2021/03/17 06:47:17;;;;;;;9.00;6.45;;;8.30;58.80;;;;;;5052144;28;20037;-73
2021/03/17 06:49:46;;;;;;;9.15;5.70;;;8.30;58.70;;;;;;5053626;28;20037;-73
2021/03/17 06:52:34;;;;;;;10.32;6.45;;;8.40;58.70;;;;;;5054019;28;20359;-73
2021/03/17 06:55:21;;;;;;;9.80;6.65;;;8.40;58.40;;;;;;5053746;28;20021;-73
2021/03/17 06:57:53;;;;;;;9.27;6.13;;;8.40;58.40;;;;;;5052132;28;20032;-73
2021/03/17 07:00:22;;;;;;;20.10;6.72;;;8.40;58.50;;;;;;5053719;28;20059;-72
2021/03/17 07:02:52;;;;;;;8.25;5.75;;;8.40;58.20;;;;;;5053522;28;20025;-73
2021/03/17 07:05:18;;;;;;;11.90;6.32;;;8.50;58.20;;;;;;5053789;28;20025;-72
2021/03/17 07:07:51;;;;;;;11.15;6.80;;;8.50;58.30;;;;;;5053657;28;20025;-73
2021/03/17 07:10:32;;;;;;;11.43;5.65;;;8.50;58.20;;;;;;5053435;28;20028;-73
2021/03/17 07:12:59;;;;;;;14.48;6.20;;;8.50;58.20;;;;;;5053508;28;20090;-72
2021/03/17 07:15:25;;;;;;;12.77;6.25;;;8.60;58.50;;;;;;5053465;28;20029;-74
2021/03/17 07:18:13;;;;;;;8.13;6.05;;;8.60;58.50;;;;;;5053503;28;20028;-73
2021/03/17 07:20:43;;;;;;;10.52;6.15;;;8.60;58.40;;;;;;5051975;28;20481;-73
2021/03/17 07:23:27;;;;;;;9.68;5.80;;;8.70;58.00;;;;;;5051981;28;20390;-73
2021/03/17 07:26:07;;;;;;;21.33;7.10;;;8.70;58.00;;;;;;5052142;28;20544;-72
2021/03/17 07:28:56;;;;;;;8.70;6.18;;;8.70;57.90;;;;;;5052206;28;20391;-73
2021/03/17 07:31:23;;;;;;;16.83;6.15;;;8.70;57.60;;;;;;5053224;28;20031;-73
2021/03/17 07:33:49;;;;;;;11.73;5.75;;;8.70;57.40;;;;;;5053371;28;20021;-73
2021/03/17 07:36:40;;;;;;;16.73;6.38;;;8.70;57.30;;;;;;5052615;28;20021;-73
2021/03/17 07:39:10;;;;;;;10.15;6.10;;;8.70;57.80;;;;;;5053079;28;20026;-73
2021/03/17 07:41:38;;;;;;;12.73;6.05;;;8.60;57.10;;;;;;5053135;28;20021;-72
2021/03/17 07:44:07;;;;;;;10.77;6.32;;;8.70;57.20;;;;;;5051675;28;20479;-72
2021/03/17 07:46:33;;;;;;;11.77;6.13;;;8.70;57.20;;;;;;5053140;28;20067;-72
2021/03/17 07:49:00;;;;;;;10.30;6.10;;;8.70;57.30;;;;;;5052929;28;20371;-73
2021/03/17 07:51:27;;;;;;;12.43;6.18;;;8.70;57.10;;;;;;5053001;28;20056;-73
2021/03/17 07:53:55;;;;;;;9.80;6.40;;;8.70;57.00;;;;;;5051774;28;20025;-73
2021/03/17 07:56:24;;;;;;;10.07;5.57;;;8.70;57.70;;;;;;5052768;28;20086;-72
2021/03/17 07:58:54;;;;;;;11.77;6.03;;;8.70;57.30;;;;;;5051662;28;20046;-74
2021/03/17 08:01:23;;;;;;;9.13;5.30;;;8.80;57.10;;;;;;5051458;28;20115;-73
2021/03/17 08:03:50;;;;;;;12.18;5.68;;;8.80;57.30;;;;;;5052825;28;20100;-72
2021/03/17 08:06:19;;;;;;;27.27;7.32;;;8.90;57.40;;;;;;5052912;28;20721;-73
2021/03/17 08:08:45;;;;;;;13.73;6.70;;;8.90;56.90;;;;;;5052638;28;20029;-72
2021/03/17 08:11:14;;;;;;;8.50;4.85;;;9.00;56.70;;;;;;5051458;28;20040;-73
2021/03/17 08:13:42;;;;;;;9.65;5.82;;;9.10;56.90;;;;;;5052847;28;20098;-73
2021/03/17 08:16:13;;;;;;;11.68;6.45;;;9.30;56.70;;;;;;5052702;28;20025;-73
2021/03/17 08:18:41;;;;;;;11.43;5.57;;;9.50;56.30;;;;;;5052809;28;20055;-74
2021/03/17 08:21:07;;;;;;;8.45;5.07;;;9.70;55.90;;;;;;5052568;28;20025;-73
2021/03/17 08:23:40;;;;;;;10.25;5.43;;;9.80;55.70;;;;;;5052663;28;20032;-73
2021/03/17 08:26:09;;;;;;;8.48;5.25;;;10.00;55.10;;;;;;5051555;28;20021;-73
2021/03/17 08:28:55;;;;;;;13.27;5.15;;;10.20;54.70;;;;;;5052669;28;20021;-74
2021/03/17 08:31:36;;;;;;;8.40;5.13;;;10.40;53.70;;;;;;5052571;28;20474;-75
2021/03/17 08:34:21;;;;;;;10.63;5.18;;;10.50;53.00;;;;;;5052783;28;20482;-73
2021/03/17 08:37:01;;;;;;;6.60;4.18;;;10.60;53.00;;;;;;5052718;28;20163;-74
2021/03/17 08:39:29;;;;;;;9.35;5.35;;;10.80;53.00;;;;;;5052476;28;20017;-73
2021/03/17 08:41:59;;;;;;;8.82;4.90;;;10.90;52.00;;;;;;5052598;28;20032;-73
2021/03/17 08:44:29;;;;;;;11.63;6.75;;;11.00;52.10;;;;;;5052407;28;20475;-73
2021/03/17 08:47:16;;;;;;;9.23;5.50;;;11.10;51.50;;;;;;5051280;28;20037;-73
2021/03/17 08:49:42;;;;;;;10.02;4.88;;;11.10;51.20;;;;;;5053358;28;20041;-73
2021/03/17 08:52:13;;;;;;;5.63;3.67;;;11.20;50.10;;;;;;5056365;28;20070;-74
2021/03/17 08:54:44;;;;;;;6.60;4.32;;;11.20;50.40;;;;;;5056434;28;20497;-74
2021/03/17 08:57:13;;;;;;;7.93;4.63;;;11.30;50.60;;;;;;5054880;28;20025;-73
2021/03/17 08:59:48;;;;;;;7.70;3.97;;;11.40;50.20;;;;;;5056198;28;20018;-72
2021/03/17 09:02:26;;;;;;;8.07;5.07;;;11.60;50.10;;;;;;5056155;28;20040;-72
2021/03/17 09:04:57;;;;;;;7.43;4.40;;;11.60;48.60;;;;;;5054682;28;20029;-73
2021/03/17 09:07:25;;;;;;;7.25;4.20;;;11.60;47.90;;;;;;5054648;28;20118;-72
2021/03/17 09:09:59;;;;;;;10.40;5.07;;;11.60;48.90;;;;;;5054932;28;20111;-73
2021/03/17 09:12:27;;;;;;;6.50;4.60;;;11.50;48.10;;;;;;5056038;28;20013;-74
2021/03/17 09:15:13;;;;;;;8.45;5.03;;;11.40;48.20;;;;;;5055855;28;20033;-73
2021/03/17 09:17:45;;;;;;;8.30;5.22;;;11.30;48.70;;;;;;5055968;28;20040;-73
2021/03/17 09:20:22;;;;;;;9.63;5.40;;;11.20;49.00;;;;;;5055637;28;20478;-73
2021/03/17 09:23:08;;;;;;;9.70;4.82;;;11.20;49.50;;;;;;5054417;28;20036;-73
2021/03/17 09:25:38;;;;;;;9.18;5.15;;;11.20;50.10;;;;;;5055378;28;20086;-73
2021/03/17 09:28:10;;;;;;;9.52;5.82;;;11.10;49.80;;;;;;5054510;28;20032;-73
2021/03/17 09:30:45;;;;;;;12.60;5.13;;;11.10;50.10;;;;;;5055326;28;20036;-74
2021/03/17 09:33:16;;;;;;;8.00;5.10;;;11.10;49.50;;;;;;5055537;28;20021;-72
2021/03/17 09:35:59;;;;;;;8.52;4.15;;;11.20;50.20;;;;;;5055398;28;20035;-73
2021/03/17 09:38:28;;;;;;;6.38;3.17;;;11.10;49.20;;;;;;5055232;28;20025;-73
2021/03/17 09:41:12;;;;;;;6.03;3.17;;;11.10;49.00;;;;;;5058097;28;20039;-74
2021/03/17 09:44:01;;;;;;;5.70;2.90;;;11.00;48.70;;;;;;5074143;28;20029;-72
2021/03/17 09:46:36;;;;;;;8.75;3.67;;;10.90;48.70;;;;;;5075062;28;20036;-73
2021/03/17 09:49:15;;;;;;;9.57;3.35;;;10.80;48.70;;;;;;5074755;28;20053;-74
2021/03/17 09:51:47;;;;;;;7.95;3.90;;;10.60;49.00;;;;;;5075091;28;20024;-74
2021/03/17 09:54:15;;;;;;;8.55;3.78;;;10.40;49.40;;;;;;5075091;28;20511;-73
2021/03/17 09:56:52;;;;;;;11.50;3.95;;;10.30;49.80;;;;;;5074894;28;20045;-73
2021/03/17 09:59:25;;;;;;;5.60;3.35;;;10.20;49.90;;;;;;5074668;28;20029;-73
2021/03/17 10:01:54;;;;;;;18.92;3.53;;;10.10;49.90;;;;;;5074917;28;20020;-74
2021/03/17 10:04:22;;;;;;;4.85;2.83;;;10.00;49.70;;;;;;5074913;28;20029;-73
2021/03/17 10:06:48;;;;;;;8.52;3.15;;;10.00;49.80;;;;;;5073651;28;20033;-72
2021/03/17 10:09:14;;;;;;;7.32;3.35;;;9.90;50.00;;;;;;5074765;28;20024;-72
2021/03/17 10:11:40;;;;;;;7.00;3.03;;;10.00;50.50;;;;;;5074716;28;20120;-74
2021/03/17 10:14:17;;;;;;;8.10;3.15;;;10.10;51.10;;;;;;5074898;28;20032;-72
2021/03/17 10:16:43;;;;;;;9.95;3.42;;;10.20;51.60;;;;;;5073168;28;20029;-72
2021/03/17 10:19:15;;;;;;;8.38;4.28;;;10.30;51.10;;;;;;5074918;28;20059;-73
2021/03/17 10:21:43;;;;;;;6.68;3.40;;;10.50;50.40;;;;;;5074598;28;20046;-73
2021/03/17 10:24:10;;;;;;;5.75;2.65;;;10.70;50.40;;;;;;5074676;28;20099;-73
2021/03/17 10:26:36;;;;;;;3.95;2.30;;;10.90;50.10;;;;;;5074452;28;20074;-72
2021/03/17 10:29:04;;;;;;;13.18;3.20;;;11.10;49.80;;;;;;5074241;28;20040;-73
2021/03/17 10:31:32;;;;;;;4.70;2.50;;;11.20;48.60;;;;;;5074374;28;20402;-74
2021/03/17 10:33:58;;;;;;;32.15;4.53;;;11.40;48.10;;;;;;5073029;28;20024;-72
2021/03/17 10:36:25;;;;;;;25.08;4.22;;;11.40;47.80;;;;;;5074380;28;20017;-73
2021/03/17 10:38:54;;;;;;;19.77;3.72;;;11.40;47.30;;;;;;5074328;28;20581;-72
2021/03/17 10:41:39;;;;;;;7.88;3.20;;;11.50;47.20;;;;;;5074072;28;20546;-73
2021/03/17 10:44:15;;;;;;;10.18;3.65;;;11.50;47.60;;;;;;5074250;28;20060;-72
2021/03/17 10:46:56;;;;;;;4.20;2.40;;;11.50;46.80;;;;;;5074052;28;20021;-74
2021/03/17 10:49:22;;;;;;;4.63;2.58;;;11.50;46.30;;;;;;5073765;28;20051;-74
2021/03/17 10:51:52;;;;;;;11.38;2.63;;;11.50;46.50;;;;;;5073831;28;20025;-73
2021/03/17 10:54:35;;;;;;;4.95;2.70;;;11.40;46.30;;;;;;5073911;28;20504;-73
2021/03/17 10:57:02;;;;;;;4.93;2.10;;;11.30;45.60;;;;;;5081026;28;20153;-72
2021/03/17 10:59:34;;;;;;;6.32;2.10;;;11.20;46.20;;;;;;5092392;28;20007;-72
2021/03/17 11:02:20;;;;;;;5.93;1.90;;;11.10;45.90;;;;;;5096237;28;20092;-71
2021/03/17 11:05:07;;;;;;;7.15;2.13;;;10.90;45.00;;;;;;5096969;28;20118;-73
2021/03/17 11:07:52;;;;;;;5.55;1.50;;;10.80;45.60;;;;;;5096382;28;20025;-72
2021/03/17 11:10:27;;;;;;;;;;;10.70;46.30;;;;;;5097280;28;20021;-72
2021/03/17 11:12:52;;;;;;;4.80;1.30;;;10.70;47.10;;;;;;5096438;28;19893;-71
2021/03/17 11:15:29;;;;;;;6.03;1.85;;;10.70;46.70;;;;;;5097564;28;20035;-72
2021/03/17 11:17:57;;;;;;;6.28;1.50;;;10.70;47.20;;;;;;5095362;28;20021;-72
2021/03/17 11:20:24;;;;;;;4.53;1.15;;;10.70;47.20;;;;;;5096906;28;20009;-71
2021/03/17 11:22:51;;;;;;;1.83;0.95;;;10.70;46.00;;;;;;5094605;28;20048;-73
2021/03/17 11:25:23;;;;;;;3.38;1.45;;;10.80;45.70;;;;;;5090580;28;20055;-74
2021/03/17 11:27:50;;;;;;;3.85;1.42;;;10.90;46.10;;;;;;5088153;28;20078;-74
2021/03/17 11:30:16;;;;;;;3.28;1.35;;;11.10;45.30;;;;;;5093066;28;20025;-71
2021/03/17 11:32:42;;;;;;;2.75;1.05;;;11.20;44.40;;;;;;5093670;28;20032;-72
2021/03/17 11:35:11;;;;;;;4.00;1.38;;;11.40;45.40;;;;;;5095227;28;20028;-71
2021/03/17 11:37:36;;;;;;;2.55;1.38;;;11.60;44.20;;;;;;5094950;28;20027;-71
2021/03/17 11:40:04;;;;;;;3.65;1.38;;;11.80;43.50;;;;;;5093541;28;20037;-71
2021/03/17 11:42:31;;;;;;;4.43;1.40;;;12.00;42.90;;;;;;5093992;28;20023;-71
2021/03/17 11:44:56;;;;;;;3.00;1.15;;;12.20;42.60;;;;;;5094804;28;20040;-72
2021/03/17 11:47:22;;;;;;;3.88;1.80;;;12.30;42.20;;;;;;5096925;28;20004;-73
2021/03/17 11:49:48;;;;;;;1.95;1.10;;;12.50;41.30;;;;;;5095502;28;20064;-72
2021/03/17 11:52:14;;;;;;;2.72;1.63;;;12.70;41.40;;;;;;5095347;28;20008;-72
2021/03/17 11:54:40;;;;;;;6.78;2.03;;;12.80;40.90;;;;;;5096217;28;20074;-71
2021/03/17 11:57:06;;;;;;;3.45;2.00;;;13.00;40.40;;;;;;5096341;28;20000;-72
2021/03/17 11:59:32;;;;;;;6.25;2.08;;;13.20;40.00;;;;;;5096447;28;20031;-72
2021/03/17 12:01:58;;;;;;;11.27;1.77;;;13.30;39.40;;;;;;5093732;28;20020;-72
2021/03/17 12:04:24;;;;;;;7.18;2.10;;;13.40;40.00;;;;;;5090708;28;20492;-73
2021/03/17 12:06:50;;;;;;;11.75;2.08;;;13.50;39.90;;;;;;5073118;28;20036;-73
2021/03/17 12:09:16;;;;;;;4.22;2.08;;;13.60;40.10;;;;;;5077244;28;20035;-73
2021/03/17 12:11:42;;;;;;;5.03;1.65;;;13.50;37.90;;;;;;5075518;28;20106;-73
2021/03/17 12:14:09;;;;;;;7.75;2.63;;;13.50;39.00;;;;;;5073811;28;20024;-73
2021/03/17 12:16:35;;;;;;;8.75;2.40;;;13.30;38.50;;;;;;5073822;28;20038;-74
2021/03/17 12:19:00;;;;;;;5.90;2.20;;;13.20;39.60;;;;;;5074604;28;20087;-72
2021/03/17 12:21:27;;;;;;;4.97;2.20;;;13.10;40.40;;;;;;5073271;28;20044;-74
2021/03/17 12:23:53;;;;;;;7.82;2.42;;;13.00;40.60;;;;;;5076608;28;20024;-72
2021/03/17 12:26:20;;;;;;;9.95;2.53;;;12.90;41.10;;;;;;5077978;28;20470;-73
2021/03/17 12:28:46;;;;;;;5.75;2.33;;;12.70;41.20;;;;;;5077364;28;20082;-73
2021/03/17 12:31:12;;;;;;;6.72;3.03;;;12.50;41.30;;;;;;5077008;28;20064;-72
2021/03/17 12:33:38;;;;;;;4.55;2.33;;;12.30;41.40;;;;;;5076047;28;20366;-73
2021/03/17 12:36:05;;;;;;;4.32;2.00;;;12.10;41.40;;;;;;5077171;28;20031;-73
2021/03/17 12:38:32;;;;;;;6.18;2.00;;;11.90;41.50;;;;;;5077204;28;20024;-72
2021/03/17 12:40:58;;;;;;;9.38;1.90;;;11.80;41.90;;;;;;5077428;28;20020;-73
2021/03/17 12:43:24;;;;;;;3.78;1.58;;;11.60;42.10;;;;;;5077649;28;20039;-73
2021/03/17 12:45:51;;;;;;;4.85;1.80;;;11.60;42.20;;;;;;5076359;28;20070;-72
2021/03/17 12:48:18;;;;;;;5.05;2.00;;;11.60;42.50;;;;;;5076807;28;20020;-72
2021/03/17 12:50:44;;;;;;;5.75;2.22;;;11.60;41.40;;;;;;5076533;28;20064;-71
2021/03/17 12:53:10;;;;;;;3.28;1.60;;;11.60;41.60;;;;;;5075547;28;20052;-73
2021/03/17 12:55:36;;;;;;;3.20;1.23;;;11.60;42.00;;;;;;5076775;28;20045;-73
2021/03/17 12:58:02;;;;;;;6.53;1.60;;;11.70;41.90;;;;;;5076471;28;20024;-72
2021/03/17 13:00:29;;;;;;;10.70;1.77;;;11.80;40.70;;;;;;5078445;28;20507;-72
2021/03/17 13:02:55;;;;;;;3.15;1.60;;;11.90;41.10;;;;;;5076799;28;20028;-71